createdAt,value
2018-12-19T00:00:04.488Z,1008.01
2018-12-19T00:01:04.527Z,1007.96
2018-12-19T00:02:04.448Z,1007.95
2018-12-19T00:03:04.438Z,1007.93
2018-12-19T00:04:04.378Z,1007.97
2018-12-19T00:05:04.347Z,1007.93
2018-12-19T00:06:04.357Z,1007.95
2018-12-19T00:07:04.287Z,1007.99
2018-12-19T00:08:04.269Z,1007.96
2018-12-19T00:09:04.228Z,1007.98
2018-12-19T00:10:04.208Z,1007.96
2018-12-19T00:11:04.189Z,1007.89
2018-12-19T00:12:04.146Z,1007.96
2018-12-19T00:13:04.198Z,1007.97
2018-12-19T00:14:04.087Z,1007.92
2018-12-19T00:15:04.056Z,1007.87
2018-12-19T00:16:04.028Z,1007.92
2018-12-19T00:17:04.017Z,1007.89
2018-12-19T00:18:03.969Z,1007.89
2018-12-19T00:19:04.030Z,1007.86
2018-12-19T00:20:03.919Z,1007.88
2018-12-19T00:21:03.947Z,1007.90
2018-12-19T00:22:03.849Z,1007.86
2018-12-19T00:23:03.852Z,1007.84
2018-12-19T00:24:03.802Z,1007.81
2018-12-19T00:25:03.866Z,1007.74
2018-12-19T00:26:03.737Z,1007.77
2018-12-19T00:27:03.778Z,1007.72
2018-12-19T00:28:03.679Z,1007.70
2018-12-19T00:29:03.687Z,1007.78
2018-12-19T00:30:03.615Z,1007.70
2018-12-19T00:31:03.599Z,1007.58
2018-12-19T00:32:03.557Z,1007.51
2018-12-19T00:33:03.618Z,1007.50
2018-12-19T00:34:03.499Z,1007.62
2018-12-19T00:35:03.515Z,1007.59
2018-12-19T00:36:03.447Z,1007.59
2018-12-19T00:37:03.426Z,1007.54
2018-12-19T00:38:03.393Z,1007.51
2018-12-19T00:39:09.382Z,1007.53
2018-12-19T00:40:03.355Z,1007.51
2018-12-19T00:41:03.347Z,1007.52
2018-12-19T00:42:03.267Z,1007.44
2018-12-19T00:43:03.255Z,1007.44
2018-12-19T00:44:03.205Z,1007.33
2018-12-19T00:45:03.277Z,1007.26
2018-12-19T00:46:03.157Z,1007.40
2018-12-19T00:47:03.127Z,1007.42
2018-12-19T00:48:03.095Z,1007.40
2018-12-19T00:49:03.096Z,1007.37
2018-12-19T00:50:03.048Z,1007.41
2018-12-19T00:51:03.105Z,1007.49
2018-12-19T00:52:02.978Z,1007.50
2018-12-19T00:53:03.028Z,1007.49
2018-12-19T00:54:02.920Z,1007.47
2018-12-19T00:55:02.928Z,1007.47
2018-12-19T00:56:02.865Z,1007.39
2018-12-19T00:57:02.940Z,1007.36
2018-12-19T00:58:02.805Z,1007.32
2018-12-19T00:59:02.851Z,1007.19
2018-12-19T01:00:02.747Z,1007.22
2018-12-19T01:01:02.761Z,1007.47
2018-12-19T01:02:02.698Z,1007.48
2018-12-19T01:03:02.659Z,1007.40
2018-12-19T01:04:02.639Z,1007.43
2018-12-19T01:05:02.679Z,1007.46
2018-12-19T01:06:02.588Z,1007.42
2018-12-19T01:07:02.588Z,1007.50
2018-12-19T01:08:02.596Z,1007.47
2018-12-19T01:09:02.509Z,1007.44
2018-12-19T01:10:02.517Z,1007.45
2018-12-19T01:11:02.426Z,1007.47
2018-12-19T01:12:02.427Z,1007.45
2018-12-19T01:13:02.368Z,1007.54
2018-12-19T01:14:02.440Z,1007.58
2018-12-19T01:15:02.308Z,1007.63
2018-12-19T01:16:02.337Z,1007.60
2018-12-19T01:17:02.261Z,1007.65
2018-12-19T01:18:02.247Z,1007.57
2018-12-19T01:19:02.208Z,1007.52
2018-12-19T01:20:02.267Z,1007.52
2018-12-19T01:21:02.136Z,1007.50
2018-12-19T01:22:02.177Z,1007.51
2018-12-19T01:23:02.079Z,1007.50
2018-12-19T01:24:02.057Z,1007.58
2018-12-19T01:25:02.034Z,1007.54
2018-12-19T01:26:02.098Z,1007.52
2018-12-19T01:27:01.959Z,1007.51
2018-12-19T01:28:02.008Z,1007.51
2018-12-19T01:29:01.919Z,1007.54
2018-12-19T01:30:01.877Z,1007.59
2018-12-19T01:31:01.926Z,1007.56
2018-12-19T01:32:01.817Z,1007.61
2018-12-19T01:33:01.839Z,1007.58
2018-12-19T01:34:01.775Z,1007.62
2018-12-19T01:35:01.725Z,1007.60
2018-12-19T01:36:01.761Z,1007.62
2018-12-19T01:37:01.678Z,1007.55
2018-12-19T01:38:01.660Z,1007.63
2018-12-19T01:39:01.618Z,1007.65
2018-12-19T01:40:01.588Z,1007.61
2018-12-19T01:41:01.557Z,1007.61
2018-12-19T01:42:01.599Z,1007.63
2018-12-19T01:43:01.506Z,1007.59
2018-12-19T01:44:01.499Z,1007.62
2018-12-19T01:45:01.438Z,1007.63
2018-12-19T01:46:01.559Z,1007.55
2018-12-19T01:47:01.403Z,1007.55
2018-12-19T01:48:01.417Z,1007.62
2018-12-19T01:49:01.339Z,1007.60
2018-12-19T01:50:01.329Z,1007.57
2018-12-19T01:51:01.284Z,1007.55
2018-12-19T01:52:01.337Z,1007.55
2018-12-19T01:53:01.207Z,1007.61
2018-12-19T01:54:01.273Z,1007.59
2018-12-19T01:55:01.158Z,1007.64
2018-12-19T01:56:01.128Z,1007.58
2018-12-19T01:57:01.169Z,1007.53
2018-12-19T01:58:01.067Z,1007.63
2018-12-19T01:59:01.079Z,1007.66
2018-12-19T02:00:01.030Z,1007.70
2018-12-19T02:01:00.979Z,1007.71
2018-12-19T02:02:00.958Z,1007.69
2018-12-19T02:03:00.999Z,1007.71
2018-12-19T02:04:00.897Z,1007.70
2018-12-19T02:05:00.907Z,1007.73
2018-12-19T02:06:00.835Z,1007.72
2018-12-19T02:07:00.816Z,1007.71
2018-12-19T02:08:00.777Z,1007.68
2018-12-19T02:09:00.826Z,1007.73
2018-12-19T02:10:00.730Z,1007.79
2018-12-19T02:11:00.738Z,1007.83
2018-12-19T02:12:00.671Z,1007.82
2018-12-19T02:13:00.649Z,1007.90
2018-12-19T02:14:00.610Z,1007.90
2018-12-19T02:15:00.666Z,1007.94
2018-12-19T02:16:00.559Z,1007.96
2018-12-19T02:17:00.514Z,1007.92
2018-12-19T02:18:00.496Z,1008.01
2018-12-19T02:19:00.489Z,1008.04
2018-12-19T02:20:00.436Z,1007.95
2018-12-19T02:21:00.499Z,1007.98
2018-12-19T02:22:00.377Z,1007.88
2018-12-19T02:23:00.406Z,1007.84
2018-12-19T02:24:00.315Z,1007.85
2018-12-19T02:25:00.315Z,1007.83
2018-12-19T02:26:00.265Z,1007.88
2018-12-19T02:27:00.325Z,1007.84
2018-12-19T02:28:00.205Z,1007.68
2018-12-19T02:29:00.237Z,1007.60
2018-12-19T02:30:00.150Z,1007.57
2018-12-19T02:31:00.149Z,1007.34
2018-12-19T02:32:00.087Z,1007.24
2018-12-19T02:33:00.057Z,1007.18
2018-12-19T02:34:00.037Z,1007.26
2018-12-19T02:35:00.078Z,1007.35
2018-12-19T02:35:59.976Z,1007.30
2018-12-19T02:36:59.986Z,1007.41
2018-12-19T02:37:59.915Z,1007.44
2018-12-19T02:38:59.997Z,1007.47
2018-12-19T02:39:59.865Z,1007.67
2018-12-19T02:40:59.905Z,1007.69
2018-12-19T02:41:59.809Z,1007.70
2018-12-19T02:42:59.830Z,1007.59
2018-12-19T02:43:59.747Z,1007.60
2018-12-19T02:45:00.035Z,1007.62
2018-12-19T02:45:59.698Z,1007.62
2018-12-19T02:46:59.736Z,1007.54
2018-12-19T02:47:59.636Z,1007.47
2018-12-19T02:48:59.605Z,1007.45
2018-12-19T02:49:59.575Z,1007.43
2018-12-19T02:50:59.569Z,1007.34
2018-12-19T02:51:59.515Z,1007.30
2018-12-19T02:52:59.565Z,1007.29
2018-12-19T02:53:59.479Z,1007.28
2018-12-19T02:54:59.433Z,1007.26
2018-12-19T02:55:59.486Z,1007.24
2018-12-19T02:56:59.375Z,1007.28
2018-12-19T02:57:59.394Z,1007.25
2018-12-19T02:58:59.317Z,1007.26
2018-12-19T02:59:59.289Z,1007.25
2018-12-19T03:00:59.318Z,1007.25
2018-12-19T03:01:59.230Z,1007.21
2018-12-19T03:02:59.228Z,1007.27
2018-12-19T03:03:59.178Z,1007.27
2018-12-19T03:04:59.146Z,1007.23
2018-12-19T03:05:59.177Z,1007.18
2018-12-19T03:06:59.085Z,1007.09
2018-12-19T03:07:59.156Z,1007.12
2018-12-19T03:08:59.026Z,1007.11
2018-12-19T03:09:58.995Z,1007.10
2018-12-19T03:10:58.967Z,1007.05
2018-12-19T03:11:58.975Z,1007.05
2018-12-19T03:12:58.917Z,1007.01
2018-12-19T03:13:58.986Z,1007.02
2018-12-19T03:14:58.854Z,1006.98
2018-12-19T03:15:58.895Z,1006.93
2018-12-19T03:16:58.804Z,1006.92
2018-12-19T03:17:58.807Z,1006.85
2018-12-19T03:18:58.756Z,1006.78
2018-12-19T03:19:58.816Z,1006.79
2018-12-19T03:20:58.687Z,1006.69
2018-12-19T03:21:58.725Z,1006.71
2018-12-19T03:22:58.633Z,1006.73
2018-12-19T03:23:58.635Z,1006.65
2018-12-19T03:24:58.578Z,1006.67
2018-12-19T03:25:58.548Z,1006.70
2018-12-19T03:26:58.516Z,1006.72
2018-12-19T03:27:58.559Z,1006.77
2018-12-19T03:28:58.461Z,1006.77
2018-12-19T03:29:58.478Z,1006.83
2018-12-19T03:30:58.396Z,1006.85
2018-12-19T03:31:58.397Z,1006.89
2018-12-19T03:32:58.337Z,1006.85
2018-12-19T03:33:58.399Z,1006.85
2018-12-19T03:34:58.274Z,1006.84
2018-12-19T03:35:58.310Z,1006.81
2018-12-19T03:36:58.323Z,1006.85
2018-12-19T03:37:58.196Z,1006.81
2018-12-19T03:38:58.238Z,1006.82
2018-12-19T03:39:58.136Z,1006.83
2018-12-19T03:40:58.126Z,1006.87
2018-12-19T03:41:58.134Z,1006.88
2018-12-19T03:42:58.056Z,1006.84
2018-12-19T03:43:58.056Z,1006.83
2018-12-19T03:44:57.996Z,1006.83
2018-12-19T03:45:58.055Z,1006.85
2018-12-19T03:46:57.938Z,1006.88
2018-12-19T03:47:57.905Z,1006.86
2018-12-19T03:48:57.975Z,1006.88
2018-12-19T03:49:57.857Z,1006.87
2018-12-19T03:50:57.885Z,1006.89
2018-12-19T03:51:57.796Z,1006.90
2018-12-19T03:52:57.768Z,1006.92
2018-12-19T03:53:57.805Z,1006.91
2018-12-19T03:54:57.708Z,1006.91
2018-12-19T03:55:57.726Z,1006.89
2018-12-19T03:56:57.659Z,1006.88
2018-12-19T03:57:57.627Z,1006.81
2018-12-19T03:58:57.618Z,1006.82
2018-12-19T03:59:57.641Z,1006.79
2018-12-19T04:00:57.546Z,1006.78
2018-12-19T04:01:57.552Z,1006.79
2018-12-19T04:02:57.557Z,1006.83
2018-12-19T04:03:57.469Z,1006.84
2018-12-19T04:04:57.476Z,1006.87
2018-12-19T04:05:57.396Z,1006.88
2018-12-19T04:06:57.490Z,1006.88
2018-12-19T04:07:57.336Z,1006.87
2018-12-19T04:08:57.390Z,1006.84
2018-12-19T04:09:58.144Z,1006.81
2018-12-19T04:10:57.304Z,1006.84
2018-12-19T04:11:57.238Z,1006.88
2018-12-19T04:12:57.308Z,1006.93
2018-12-19T04:13:57.188Z,1006.91
2018-12-19T04:14:57.214Z,1006.92
2018-12-19T04:15:57.110Z,1006.93
2018-12-19T04:16:57.127Z,1006.99
2018-12-19T04:17:57.058Z,1007.01
2018-12-19T04:18:57.028Z,1006.94
2018-12-19T04:19:56.995Z,1006.98
2018-12-19T04:20:57.057Z,1007.00
2018-12-19T04:21:56.936Z,1007.03
2018-12-19T04:22:56.965Z,1006.98
2018-12-19T04:23:56.889Z,1007.01
2018-12-19T04:24:56.866Z,1007.01
2018-12-19T04:25:56.825Z,1006.96
2018-12-19T04:26:56.901Z,1006.98
2018-12-19T04:27:56.768Z,1007.04
2018-12-19T04:28:56.795Z,1007.04
2018-12-19T04:29:56.720Z,1007.06
2018-12-19T04:30:56.720Z,1007.06
2018-12-19T04:31:56.656Z,1007.03
2018-12-19T04:32:56.719Z,1007.08
2018-12-19T04:33:56.598Z,1007.11
2018-12-19T04:34:56.567Z,1007.07
2018-12-19T04:35:56.636Z,1007.09
2018-12-19T04:36:56.505Z,1007.07
2018-12-19T04:37:56.545Z,1007.15
2018-12-19T04:38:56.445Z,1007.18
2018-12-19T04:39:56.427Z,1007.17
2018-12-19T04:40:56.396Z,1007.14
2018-12-19T04:41:56.468Z,1007.14
2018-12-19T04:42:56.352Z,1007.20
2018-12-19T04:43:56.377Z,1007.20
2018-12-19T04:44:56.287Z,1007.16
2018-12-19T04:45:56.257Z,1007.23
2018-12-19T04:46:56.295Z,1007.22
2018-12-19T04:47:56.197Z,1007.21
2018-12-19T04:48:56.208Z,1007.14
2018-12-19T04:49:56.148Z,1007.22
2018-12-19T04:50:56.105Z,1007.20
2018-12-19T04:51:56.120Z,1007.24
2018-12-19T04:52:56.057Z,1007.20
2018-12-19T04:53:56.149Z,1007.22
2018-12-19T04:54:55.996Z,1007.22
2018-12-19T04:55:55.968Z,1007.22
2018-12-19T04:56:55.959Z,1007.22
2018-12-19T04:57:55.957Z,1007.22
2018-12-19T04:58:55.885Z,1007.26
2018-12-19T04:59:55.967Z,1007.22
2018-12-19T05:00:55.838Z,1007.26
2018-12-19T05:01:55.875Z,1007.25
2018-12-19T05:02:55.776Z,1007.23
2018-12-19T05:03:55.797Z,1007.28
2018-12-19T05:04:55.717Z,1007.26
2018-12-19T05:05:55.797Z,1007.28
2018-12-19T05:06:55.695Z,1007.28
2018-12-19T05:07:55.628Z,1007.30
2018-12-19T05:08:55.717Z,1007.28
2018-12-19T05:09:55.579Z,1007.34
2018-12-19T05:10:55.631Z,1007.30
2018-12-19T05:11:55.629Z,1007.32
2018-12-19T05:12:55.499Z,1007.33
2018-12-19T05:13:55.536Z,1007.32
2018-12-19T05:14:55.447Z,1007.35
2018-12-19T05:15:55.449Z,1007.30
2018-12-19T05:16:55.388Z,1007.29
2018-12-19T05:17:55.467Z,1007.35
2018-12-19T05:18:55.321Z,1007.33
2018-12-19T05:19:55.390Z,1007.35
2018-12-19T05:20:55.267Z,1007.33
2018-12-19T05:21:55.288Z,1007.37
2018-12-19T05:22:55.219Z,1007.37
2018-12-19T05:23:55.200Z,1007.41
2018-12-19T05:24:55.158Z,1007.37
2018-12-19T05:25:55.217Z,1007.35
2018-12-19T05:26:55.095Z,1007.33
2018-12-19T05:27:55.067Z,1007.34
2018-12-19T05:28:55.049Z,1007.31
2018-12-19T05:29:55.039Z,1007.35
2018-12-19T05:30:54.986Z,1007.36
2018-12-19T05:31:55.038Z,1007.36
2018-12-19T05:32:54.935Z,1007.40
2018-12-19T05:33:54.956Z,1007.39
2018-12-19T05:34:54.875Z,1007.45
2018-12-19T05:35:54.877Z,1007.45
2018-12-19T05:36:54.837Z,1007.47
2018-12-19T05:37:54.877Z,1007.45
2018-12-19T05:38:54.789Z,1007.48
2018-12-19T05:39:54.796Z,1007.45
2018-12-19T05:40:54.711Z,1007.46
2018-12-19T05:41:54.717Z,1007.52
2018-12-19T05:42:54.650Z,1007.51
2018-12-19T05:43:54.617Z,1007.51
2018-12-19T05:44:54.615Z,1007.54
2018-12-19T05:45:54.562Z,1007.54
2018-12-19T05:46:54.628Z,1007.58
2018-12-19T05:47:54.496Z,1007.55
2018-12-19T05:48:54.480Z,1007.58
2018-12-19T05:49:54.446Z,1007.61
2018-12-19T05:50:54.446Z,1007.60
2018-12-19T05:51:54.386Z,1007.58
2018-12-19T05:52:54.456Z,1007.59
2018-12-19T05:53:54.337Z,1007.61
2018-12-19T05:54:54.369Z,1007.61
2018-12-19T05:55:54.277Z,1007.59
2018-12-19T05:56:54.278Z,1007.60
2018-12-19T05:57:54.226Z,1007.64
2018-12-19T05:58:54.287Z,1007.63
2018-12-19T05:59:54.202Z,1007.61
2018-12-19T06:00:54.145Z,1007.63
2018-12-19T06:01:54.210Z,1007.59
2018-12-19T06:02:54.077Z,1007.60
2018-12-19T06:03:54.118Z,1007.62
2018-12-19T06:04:54.119Z,1007.64
2018-12-19T06:05:53.996Z,1007.66
2018-12-19T06:06:54.028Z,1007.64
2018-12-19T06:07:53.948Z,1007.69
2018-12-19T06:08:53.937Z,1007.70
2018-12-19T06:09:53.886Z,1007.67
2018-12-19T06:10:53.858Z,1007.67
2018-12-19T06:11:53.859Z,1007.69
2018-12-19T06:12:53.796Z,1007.71
2018-12-19T06:13:53.880Z,1007.70
2018-12-19T06:14:53.745Z,1007.66
2018-12-19T06:15:53.717Z,1007.66
2018-12-19T06:16:53.789Z,1007.67
2018-12-19T06:17:53.655Z,1007.69
2018-12-19T06:18:53.695Z,1007.72
2018-12-19T06:19:53.611Z,1007.75
2018-12-19T06:20:53.576Z,1007.71
2018-12-19T06:21:53.621Z,1007.74
2018-12-19T06:22:53.558Z,1007.78
2018-12-19T06:23:53.529Z,1007.77
2018-12-19T06:24:53.467Z,1007.76
2018-12-19T06:25:53.435Z,1007.77
2018-12-19T06:26:53.418Z,1007.77
2018-12-19T06:27:53.451Z,1007.81
2018-12-19T06:28:53.357Z,1007.80
2018-12-19T06:29:53.354Z,1007.79
2018-12-19T06:30:53.307Z,1007.78
2018-12-19T06:31:53.270Z,1007.76
2018-12-19T06:32:53.291Z,1007.79
2018-12-19T06:33:53.217Z,1007.83
2018-12-19T06:34:53.288Z,1007.79
2018-12-19T06:35:53.157Z,1007.82
2018-12-19T06:36:53.127Z,1007.81
2018-12-19T06:37:53.094Z,1007.82
2018-12-19T06:38:53.107Z,1007.82
2018-12-19T06:39:53.057Z,1007.83
2018-12-19T06:40:53.116Z,1007.84
2018-12-19T06:41:53.026Z,1007.86
2018-12-19T06:42:52.968Z,1007.86
2018-12-19T06:43:53.036Z,1007.85
2018-12-19T06:44:52.894Z,1007.89
2018-12-19T06:45:52.956Z,1007.86
2018-12-19T06:46:52.844Z,1007.89
2018-12-19T06:47:52.819Z,1007.88
2018-12-19T06:48:52.854Z,1007.92
2018-12-19T06:49:52.766Z,1007.89
2018-12-19T06:50:52.766Z,1007.92
2018-12-19T06:51:52.708Z,1007.94
2018-12-19T06:52:52.677Z,1007.99
2018-12-19T06:53:52.646Z,1007.97
2018-12-19T06:54:52.696Z,1008.01
2018-12-19T06:55:52.606Z,1008.05
2018-12-19T06:56:52.609Z,1008.04
2018-12-19T06:57:52.609Z,1008.03
2018-12-19T06:58:52.516Z,1008.04
2018-12-19T06:59:52.516Z,1008.05
2018-12-19T07:00:52.445Z,1008.04
2018-12-19T07:01:52.533Z,1008.00
2018-12-19T07:02:52.394Z,1008.04
2018-12-19T07:03:52.451Z,1008.06
2018-12-19T07:04:52.344Z,1008.03
2018-12-19T07:05:52.361Z,1008.04
2018-12-19T07:06:52.285Z,1008.04
2018-12-19T07:07:52.365Z,1008.06
2018-12-19T07:08:52.245Z,1008.02
2018-12-19T07:09:52.274Z,1008.06
2018-12-19T07:10:52.177Z,1008.04
2018-12-19T07:11:52.184Z,1008.07
2018-12-19T07:12:52.116Z,1008.11
2018-12-19T07:13:52.105Z,1008.09
2018-12-19T07:14:52.055Z,1008.16
2018-12-19T07:15:52.106Z,1008.14
2018-12-19T07:16:52.011Z,1008.14
2018-12-19T07:17:52.017Z,1008.13
2018-12-19T07:18:51.956Z,1008.13
2018-12-19T07:19:52.040Z,1008.18
2018-12-19T07:20:51.905Z,1008.20
2018-12-19T07:21:51.949Z,1008.17
2018-12-19T07:22:51.836Z,1008.15
2018-12-19T07:23:51.859Z,1008.16
2018-12-19T07:24:51.785Z,1008.13
2018-12-19T07:25:51.867Z,1008.18
2018-12-19T07:26:51.733Z,1008.15
2018-12-19T07:27:51.774Z,1008.14
2018-12-19T07:28:51.675Z,1008.14
2018-12-19T07:29:51.646Z,1008.20
2018-12-19T07:30:51.628Z,1008.18
2018-12-19T07:31:51.695Z,1008.21
2018-12-19T07:32:51.556Z,1008.19
2018-12-19T07:33:51.607Z,1008.23
2018-12-19T07:34:51.505Z,1008.23
2018-12-19T07:35:51.515Z,1008.26
2018-12-19T07:36:51.455Z,1008.24
2018-12-19T07:37:51.523Z,1008.25
2018-12-19T07:38:51.396Z,1008.27
2018-12-19T07:39:51.447Z,1008.32
2018-12-19T07:40:51.340Z,1008.29
2018-12-19T07:41:51.354Z,1008.28
2018-12-19T07:42:51.286Z,1008.29
2018-12-19T07:43:51.376Z,1008.39
2018-12-19T07:44:51.233Z,1008.34
2018-12-19T07:45:51.195Z,1008.38
2018-12-19T07:46:51.277Z,1008.39
2018-12-19T07:47:51.153Z,1008.35
2018-12-19T07:48:51.185Z,1008.38
2018-12-19T07:49:51.094Z,1008.38
2018-12-19T07:50:51.067Z,1008.32
2018-12-19T07:51:51.036Z,1008.40
2018-12-19T07:52:51.127Z,1008.36
2018-12-19T07:53:50.973Z,1008.38
2018-12-19T07:54:51.032Z,1008.36
2018-12-19T07:55:50.926Z,1008.35
2018-12-19T07:56:50.959Z,1008.38
2018-12-19T07:57:50.864Z,1008.41
2018-12-19T07:58:50.944Z,1008.40
2018-12-19T07:59:50.819Z,1008.45
2018-12-19T08:00:50.866Z,1008.48
2018-12-19T08:01:50.756Z,1008.47
2018-12-19T08:02:50.776Z,1008.49
2018-12-19T08:03:50.704Z,1008.51
2018-12-19T08:04:50.779Z,1008.60
2018-12-19T08:05:50.645Z,1008.54
2018-12-19T08:06:50.617Z,1008.55
2018-12-19T08:07:50.594Z,1008.51
2018-12-19T08:08:50.596Z,1008.55
2018-12-19T08:09:50.556Z,1008.59
2018-12-19T08:10:52.374Z,1008.62
2018-12-19T08:11:50.484Z,1008.65
2018-12-19T08:12:50.526Z,1008.62
2018-12-19T08:13:50.425Z,1008.65
2018-12-19T08:14:50.465Z,1008.62
2018-12-19T08:15:50.375Z,1008.65
2018-12-19T08:16:50.485Z,1008.65
2018-12-19T08:17:50.316Z,1008.65
2018-12-19T08:18:50.393Z,1008.64
2018-12-19T08:19:50.256Z,1008.68
2018-12-19T08:20:50.305Z,1008.71
2018-12-19T08:21:50.208Z,1008.68
2018-12-19T08:22:50.174Z,1008.69
2018-12-19T08:23:50.159Z,1008.75
2018-12-19T08:24:50.184Z,1008.74
2018-12-19T08:25:50.094Z,1008.80
2018-12-19T08:26:50.146Z,1008.83
2018-12-19T08:27:50.046Z,1008.83
2018-12-19T08:28:50.054Z,1008.81
2018-12-19T08:29:49.986Z,1008.83
2018-12-19T08:30:50.070Z,1008.86
2018-12-19T08:31:49.936Z,1008.86
2018-12-19T08:32:49.928Z,1008.86
2018-12-19T08:33:49.880Z,1008.90
2018-12-19T08:34:49.994Z,1008.86
2018-12-19T08:35:49.826Z,1008.92
2018-12-19T08:36:49.906Z,1009.00
2018-12-19T08:37:49.776Z,1009.02
2018-12-19T08:38:49.745Z,1009.00
2018-12-19T08:39:49.720Z,1009.03
2018-12-19T08:40:49.834Z,1009.01
2018-12-19T08:41:49.654Z,1009.07
2018-12-19T08:42:49.746Z,1009.06
2018-12-19T08:43:49.755Z,1009.02
2018-12-19T08:44:49.584Z,1009.08
2018-12-19T08:45:49.665Z,1009.05
2018-12-19T08:46:49.527Z,1009.09
2018-12-19T08:47:49.574Z,1009.08
2018-12-19T08:48:49.474Z,1009.13
2018-12-19T08:49:49.586Z,1009.12
2018-12-19T08:50:49.415Z,1009.13
2018-12-19T08:51:49.504Z,1009.13
2018-12-19T08:52:49.366Z,1009.12
2018-12-19T08:53:49.525Z,1009.16
2018-12-19T08:54:49.314Z,1009.16
2018-12-19T08:55:49.425Z,1009.16
2018-12-19T08:56:49.246Z,1009.17
2018-12-19T08:57:49.335Z,1009.17
2018-12-19T08:58:49.196Z,1009.22
2018-12-19T08:59:49.165Z,1009.24
2018-12-19T09:00:49.146Z,1009.23
2018-12-19T09:01:49.266Z,1009.25
2018-12-19T09:02:49.086Z,1009.29
2018-12-19T09:03:49.175Z,1009.28
2018-12-19T09:04:49.036Z,1009.29
2018-12-19T09:05:49.189Z,1009.29
2018-12-19T09:06:48.974Z,1009.32
2018-12-19T09:07:49.106Z,1009.31
2018-12-19T09:08:48.927Z,1009.30
2018-12-19T09:09:49.015Z,1009.31
2018-12-19T09:10:48.876Z,1009.31
2018-12-19T09:11:50.072Z,1009.32
2018-12-19T09:12:48.813Z,1009.34
2018-12-19T09:13:48.945Z,1009.36
2018-12-19T09:14:48.765Z,1009.35
2018-12-19T09:15:48.738Z,1009.33
2018-12-19T09:16:48.857Z,1009.39
2018-12-19T09:17:48.685Z,1009.38
2018-12-19T09:18:48.764Z,1009.39
2018-12-19T09:19:48.625Z,1009.41
2018-12-19T09:20:48.594Z,1009.42
2018-12-19T09:21:48.568Z,1009.40
2018-12-19T09:22:48.694Z,1009.38
2018-12-19T09:23:48.515Z,1009.39
2018-12-19T09:24:48.605Z,1009.39
2018-12-19T09:25:48.465Z,1009.40
2018-12-19T09:26:48.446Z,1009.45
2018-12-19T09:27:48.526Z,1009.39
2018-12-19T09:28:48.375Z,1009.39
2018-12-19T09:29:48.535Z,1009.46
2018-12-19T09:30:48.328Z,1009.43
2018-12-19T09:31:48.300Z,1009.49
2018-12-19T09:32:48.288Z,1009.45
2018-12-19T09:33:48.365Z,1009.48
2018-12-19T09:34:48.225Z,1009.50
2018-12-19T09:35:48.374Z,1009.52
2018-12-19T09:36:48.296Z,1009.46
2018-12-19T09:37:48.144Z,1009.64
2018-12-19T09:38:48.305Z,1009.62
2018-12-19T09:39:48.086Z,1009.65
2018-12-19T09:40:48.206Z,1009.71
2018-12-19T09:41:48.035Z,1009.75
2018-12-19T09:42:48.226Z,1009.87
2018-12-19T09:43:47.983Z,1009.72
2018-12-19T09:44:48.134Z,1009.77
2018-12-19T09:45:47.945Z,1009.76
2018-12-19T09:46:47.945Z,1009.73
2018-12-19T09:47:47.959Z,1009.64
2018-12-19T09:48:47.855Z,1009.77
2018-12-19T09:49:47.876Z,1009.74
2018-12-19T09:50:47.815Z,1009.76
2018-12-19T09:51:47.876Z,1009.72
2018-12-19T09:52:47.884Z,1009.90
2018-12-19T09:53:47.749Z,1009.64
2018-12-19T09:54:47.796Z,1009.57
2018-12-19T09:55:47.699Z,1009.90
2018-12-19T09:56:47.703Z,1009.71
2018-12-19T09:57:47.658Z,1009.67
2018-12-19T09:58:47.723Z,1009.77
2018-12-19T09:59:47.610Z,1009.84
2018-12-19T10:00:47.634Z,1010.04
2018-12-19T10:01:47.571Z,1010.05
2018-12-19T10:02:47.660Z,1010.03
2018-12-19T10:03:47.515Z,1010.10
2018-12-19T10:04:47.556Z,1010.03
2018-12-19T10:05:47.487Z,1010.03
2018-12-19T10:06:47.586Z,1010.01
2018-12-19T10:07:47.431Z,1010.06
2018-12-19T10:08:47.417Z,1010.10
2018-12-19T10:09:47.495Z,1010.09
2018-12-19T10:10:47.383Z,1010.04
2018-12-19T10:11:47.404Z,1010.06
2018-12-19T10:12:47.337Z,1010.03
2018-12-19T10:13:47.326Z,1010.08
2018-12-19T10:14:47.305Z,1010.11
2018-12-19T10:15:47.434Z,1010.05
2018-12-19T10:16:47.275Z,1010.10
2018-12-19T10:17:47.343Z,1010.11
2018-12-19T10:18:47.244Z,1010.15
2018-12-19T10:19:47.225Z,1010.15
2018-12-19T10:22:19.307Z,1010.13
2018-12-19T10:23:19.124Z,1010.11
2018-12-19T10:25:23.425Z,1010.15
2018-12-19T10:26:23.233Z,1010.12
2018-12-19T10:28:27.336Z,1010.15
2018-12-19T10:29:27.253Z,1009.56
2018-12-19T10:31:31.346Z,1009.49
2018-12-19T10:32:31.286Z,1009.45
2018-12-19T10:34:24.307Z,1009.57
2018-12-19T10:35:24.276Z,1009.64
2018-12-19T10:37:28.315Z,1009.36
2018-12-19T10:38:28.234Z,1009.34
2018-12-19T10:40:32.289Z,1009.36
2018-12-19T10:41:32.256Z,1009.40
2018-12-19T10:43:36.304Z,1009.59
2018-12-19T10:44:36.317Z,1009.36
2018-12-19T10:46:40.366Z,1009.30
2018-12-19T10:47:40.274Z,1009.22
2018-12-19T10:49:44.376Z,1009.12
2018-12-19T10:50:44.300Z,1009.14
2018-12-19T10:52:48.394Z,1009.05
2018-12-19T10:53:48.306Z,1009.11
2018-12-19T10:55:52.407Z,1009.02
2018-12-19T10:56:52.389Z,1009.04
2018-12-19T10:58:56.329Z,1009.07
2018-12-19T10:59:56.233Z,1009.08
2018-12-19T11:02:00.286Z,1009.09
2018-12-19T11:03:00.237Z,1009.06
2018-12-19T11:05:04.366Z,1009.13
2018-12-19T11:06:04.256Z,1009.13
2018-12-19T11:08:08.259Z,1009.09
2018-12-19T11:09:08.165Z,1009.10
2018-12-19T11:11:12.298Z,1009.10
2018-12-19T11:12:12.186Z,1009.07
2018-12-19T11:14:05.126Z,1009.10
2018-12-19T11:15:05.049Z,1009.05
2018-12-19T11:17:09.556Z,1009.04
2018-12-19T11:18:09.528Z,1009.03
2018-12-19T11:20:13.466Z,1008.99
2018-12-19T11:21:13.387Z,1008.94
2018-12-19T11:23:17.331Z,1009.00
2018-12-19T11:24:17.298Z,1008.96
2018-12-19T11:26:21.332Z,1009.02
2018-12-19T11:27:21.200Z,1009.03
2018-12-19T11:29:25.217Z,1008.98
2018-12-19T11:30:25.105Z,1009.16
2018-12-19T11:32:29.130Z,1009.80
2018-12-19T11:33:29.015Z,1009.01
2018-12-19T11:35:33.029Z,1009.38
2018-12-19T11:36:32.945Z,1009.09
2018-12-19T11:38:37.045Z,1008.95
2018-12-19T11:39:36.946Z,1008.90
2018-12-19T11:41:40.977Z,1008.88
2018-12-19T11:42:40.869Z,1008.88
2018-12-19T11:44:33.757Z,1008.89
2018-12-19T11:45:33.731Z,1008.97
2018-12-19T11:47:37.776Z,1008.93
2018-12-19T11:48:37.795Z,1008.83
2018-12-19T11:50:41.735Z,1008.87
2018-12-19T11:51:41.650Z,1008.89
2018-12-19T11:53:45.757Z,1008.78
2018-12-19T11:54:45.665Z,1008.79
2018-12-19T11:56:49.665Z,1008.77
2018-12-19T11:57:49.566Z,1008.74
2018-12-19T11:59:53.578Z,1008.70
2018-12-19T12:00:53.544Z,1008.70
2018-12-19T12:02:57.500Z,1008.82
2018-12-19T12:03:57.394Z,1008.69
2018-12-19T12:06:01.351Z,1008.71
2018-12-19T12:07:01.307Z,1008.69
2018-12-19T12:09:05.326Z,1008.66
2018-12-19T12:10:05.230Z,1008.78
2018-12-19T12:12:09.232Z,1008.74
2018-12-19T12:13:09.137Z,1008.69
2018-12-19T12:15:13.084Z,1008.63
2018-12-19T12:16:13.107Z,1008.68
2018-12-19T12:18:17.355Z,1008.66
2018-12-19T12:19:17.167Z,1008.66
2018-12-19T12:20:17.236Z,1008.68
2018-12-19T12:21:17.107Z,1008.59
2018-12-19T12:22:17.085Z,1008.64
2018-12-19T12:23:17.087Z,1008.61
2018-12-19T12:24:17.156Z,1008.58
2018-12-19T12:25:17.021Z,1008.56
2018-12-19T12:26:17.179Z,1008.54
2018-12-19T12:27:16.951Z,1008.54
2018-12-19T12:28:17.095Z,1008.54
2018-12-19T12:29:16.920Z,1008.55
2018-12-19T12:30:16.995Z,1008.50
2018-12-19T12:31:16.869Z,1008.54
2018-12-19T12:32:17.005Z,1008.54
2018-12-19T12:33:16.824Z,1008.44
2018-12-19T12:34:16.962Z,1008.48
2018-12-19T12:35:16.757Z,1008.46
2018-12-19T12:36:16.837Z,1008.51
2018-12-19T12:37:16.716Z,1008.47
2018-12-19T12:38:16.697Z,1008.53
2018-12-19T12:39:16.762Z,1008.50
2018-12-19T12:40:16.638Z,1008.50
2018-12-19T12:41:16.767Z,1008.49
2018-12-19T12:42:16.644Z,1008.48
2018-12-19T12:43:16.556Z,1008.40
2018-12-19T12:44:16.527Z,1008.42
2018-12-19T12:45:16.697Z,1008.39
2018-12-19T12:46:16.490Z,1008.45